createdAt,value
2023-04-25T00:00:51.092Z,97713.88
2023-04-25T00:03:19.555Z,97715.19
2023-04-25T00:05:46.466Z,97711.38
2023-04-25T00:08:13.207Z,97711.94
2023-04-25T00:10:39.719Z,97714.44
2023-04-25T00:13:07.251Z,97710.50
2023-04-25T00:15:33.757Z,97714.28
2023-04-25T00:18:00.283Z,97714.94
2023-04-25T00:20:27.047Z,97713.25
2023-04-25T00:22:56.796Z,97707.78
2023-04-25T00:25:24.464Z,97704.22
2023-04-25T00:27:51.251Z,97707.81
2023-04-25T00:30:17.795Z,97698.22
2023-04-25T00:32:44.582Z,97704.69
2023-04-25T00:35:11.268Z,97699.00
2023-04-25T00:37:38.056Z,97704.84
2023-04-25T00:40:07.224Z,97702.78
2023-04-25T00:42:35.734Z,97696.69
2023-04-25T00:45:02.387Z,97696.06
2023-04-25T00:47:29.517Z,97691.19
2023-04-25T00:49:56.051Z,97690.34
2023-04-25T00:52:22.762Z,97679.78
2023-04-25T00:54:49.466Z,97676.50
2023-04-25T00:57:16.461Z,97674.09
2023-04-25T00:59:46.625Z,97673.56
2023-04-25T01:02:13.856Z,97675.50
2023-04-25T01:04:40.408Z,97668.59
2023-04-25T01:07:07.467Z,97665.81
2023-04-25T01:09:34.225Z,97676.31
2023-04-25T01:12:02.047Z,97673.84
2023-04-25T01:14:28.642Z,97675.78
2023-04-25T01:16:55.580Z,97676.19
2023-04-25T01:19:22.722Z,97665.75
2023-04-25T01:21:49.359Z,97664.63
2023-04-25T01:24:16.148Z,97669.13
2023-04-25T01:26:45.941Z,97659.03
2023-04-25T01:29:12.946Z,97662.56
2023-04-25T01:31:39.458Z,97662.16
2023-04-25T01:34:06.266Z,97657.94
2023-04-25T01:36:33.272Z,97666.09
2023-04-25T01:39:01.674Z,97659.50
2023-04-25T01:41:28.719Z,97651.81
2023-04-25T01:43:55.742Z,97655.50
2023-04-25T01:46:22.669Z,97657.91
2023-04-25T01:48:49.384Z,97656.06
2023-04-25T01:51:16.594Z,97661.56
2023-04-25T01:53:43.844Z,97659.22
2023-04-25T01:56:10.948Z,97660.97
2023-04-25T01:58:38.895Z,97652.38
2023-04-25T02:01:14.143Z,97660.69
2023-04-25T02:03:46.543Z,97657.56
2023-04-25T02:06:21.735Z,97660.53
2023-04-25T02:08:49.874Z,97657.09
2023-04-25T02:11:16.722Z,97659.66
2023-04-25T02:13:54.073Z,97652.03
2023-04-25T02:16:40.684Z,97654.72
2023-04-25T02:19:08.034Z,97655.44
2023-04-25T02:21:36.731Z,97658.06
2023-04-25T02:24:04.832Z,97655.69
2023-04-25T02:26:31.553Z,97652.75
2023-04-25T02:28:58.374Z,97646.03
2023-04-25T02:31:24.908Z,97641.53
2023-04-25T02:33:52.906Z,97642.31
2023-04-25T02:36:19.615Z,97646.63
2023-04-25T02:38:46.196Z,97638.59
2023-04-25T02:41:12.703Z,97651.53
2023-04-25T02:43:39.189Z,97655.97
2023-04-25T02:46:05.988Z,97652.97
2023-04-25T02:48:32.508Z,97643.25
2023-04-25T02:50:59.017Z,97646.25
2023-04-25T02:53:25.581Z,97640.66
2023-04-25T02:55:53.915Z,97637.31
2023-04-25T02:58:20.669Z,97636.84
2023-04-25T03:00:50.090Z,97629.81
2023-04-25T03:03:19.070Z,97630.72
2023-04-25T03:05:47.766Z,97639.50
2023-04-25T03:08:14.523Z,97630.69
2023-04-25T03:10:41.136Z,97634.94
2023-04-25T03:13:09.647Z,97636.13
2023-04-25T03:15:36.493Z,97633.47
2023-04-25T03:18:03.237Z,97626.75
2023-04-25T03:20:29.830Z,97621.78
2023-04-25T03:22:56.318Z,97630.88
2023-04-25T03:25:22.863Z,97614.16
2023-04-25T03:27:49.468Z,97614.63
2023-04-25T03:30:16.089Z,97614.16
2023-04-25T03:32:44.384Z,97619.88
2023-04-25T03:35:13.762Z,97614.72
2023-04-25T03:37:41.561Z,97619.72
2023-04-25T03:40:08.674Z,97627.94
2023-04-25T03:43:04.960Z,97624.41
2023-04-25T03:45:31.778Z,97627.78
2023-04-25T03:47:58.615Z,97626.19
2023-04-25T03:50:27.956Z,97627.59
2023-04-25T03:52:54.486Z,97622.63
2023-04-25T03:55:21.420Z,97631.69
2023-04-25T03:57:48.086Z,97633.06
2023-04-25T04:00:15.147Z,97629.97
2023-04-25T04:02:43.963Z,97622.16
2023-04-25T04:05:11.977Z,97621.09
2023-04-25T04:07:44.419Z,97622.03
2023-04-25T04:10:12.818Z,97623.50
2023-04-25T04:12:40.526Z,97620.34
2023-04-25T04:15:07.820Z,97620.63
2023-04-25T04:17:35.325Z,97619.69
2023-04-25T04:20:02.049Z,97627.19
2023-04-25T04:22:31.275Z,97621.91
2023-04-25T04:25:01.611Z,97627.19
2023-04-25T04:27:55.383Z,97631.03
2023-04-25T04:30:30.337Z,97627.75
2023-04-25T04:32:58.972Z,97632.22
2023-04-25T04:35:25.840Z,97639.03
2023-04-25T04:37:52.456Z,97638.59
2023-04-25T04:40:21.507Z,97638.91
2023-04-25T04:42:57.419Z,97637.13
2023-04-25T04:45:43.092Z,97633.94
2023-04-25T04:48:24.445Z,97644.34
2023-04-25T04:51:17.228Z,97652.22
2023-04-25T04:54:19.270Z,97659.56
2023-04-25T04:57:08.644Z,97655.84
2023-04-25T04:59:43.200Z,97655.91
2023-04-25T05:02:39.864Z,97664.81
2023-04-25T05:05:28.424Z,97661.03
2023-04-25T05:08:17.766Z,97665.25
2023-04-25T05:11:13.652Z,97661.59
2023-04-25T05:13:57.012Z,97662.47
2023-04-25T05:16:43.535Z,97665.41
2023-04-25T05:19:33.182Z,97673.72
2023-04-25T05:22:18.271Z,97661.56
2023-04-25T05:25:00.738Z,97666.13
2023-04-25T05:27:45.975Z,97662.19
2023-04-25T05:30:24.595Z,97669.19
2023-04-25T05:33:05.049Z,97669.50
2023-04-25T05:35:31.893Z,97663.13
2023-04-25T05:37:58.872Z,97660.88
2023-04-25T05:40:43.617Z,97672.47
2023-04-25T05:43:26.699Z,97671.97
2023-04-25T05:46:10.259Z,97667.31
2023-04-25T05:48:46.251Z,97667.13
2023-04-25T05:51:29.657Z,97666.41
2023-04-25T05:54:07.481Z,97673.75
2023-04-25T05:56:34.682Z,97663.50
2023-04-25T05:59:02.037Z,97671.69
2023-04-25T06:01:28.534Z,97668.81
2023-04-25T06:03:55.420Z,97669.19
2023-04-25T06:06:22.777Z,97674.19
2023-04-25T06:08:49.314Z,97669.50
2023-04-25T06:11:15.838Z,97673.16
2023-04-25T06:13:42.373Z,97675.91
2023-04-25T06:16:09.026Z,97680.97
2023-04-25T06:18:35.729Z,97680.88
2023-04-25T06:21:02.330Z,97674.91
2023-04-25T06:23:29.079Z,97672.84
2023-04-25T06:26:03.116Z,97672.28
2023-04-25T06:28:30.963Z,97671.41
2023-04-25T06:30:57.700Z,97671.69
2023-04-25T06:33:25.326Z,97663.78
2023-04-25T06:35:52.701Z,97666.47
2023-04-25T06:38:23.842Z,97656.66
2023-04-25T06:40:52.361Z,97655.47
2023-04-25T06:43:19.488Z,97651.16
2023-04-25T06:46:06.333Z,97652.66
2023-04-25T06:48:38.977Z,97645.44
2023-04-25T06:51:06.105Z,97652.47
2023-04-25T06:53:33.632Z,97648.06
2023-04-25T06:56:04.018Z,97654.03
2023-04-25T06:58:41.372Z,97664.16
2023-04-25T07:01:12.804Z,97665.19
2023-04-25T07:03:39.542Z,97668.81
2023-04-25T07:06:12.082Z,97667.03
2023-04-25T07:08:38.894Z,97668.53
2023-04-25T07:11:05.420Z,97673.47
2023-04-25T07:13:32.077Z,97663.75
2023-04-25T07:15:58.888Z,97668.63
2023-04-25T07:18:27.535Z,97669.13
2023-04-25T07:20:54.133Z,97667.56
2023-04-25T07:23:21.193Z,97665.69
2023-04-25T07:25:47.848Z,97670.38
2023-04-25T07:28:19.667Z,97680.47
2023-04-25T07:30:47.427Z,97679.28
2023-04-25T07:33:14.002Z,97678.78
2023-04-25T07:35:40.776Z,97682.53
2023-04-25T07:38:07.729Z,97681.41
2023-04-25T07:40:35.160Z,97680.88
2023-04-25T07:43:06.109Z,97680.53
2023-04-25T07:45:39.181Z,97679.28
2023-04-25T07:48:06.823Z,97682.06
2023-04-25T07:50:36.593Z,97693.00
2023-04-25T07:53:03.133Z,97693.81
2023-04-25T07:55:37.430Z,97702.44
2023-04-25T07:58:09.923Z,97707.69
2023-04-25T08:00:39.642Z,97697.59
2023-04-25T08:03:24.964Z,97705.84
2023-04-25T08:05:52.264Z,97716.06
2023-04-25T08:08:19.533Z,97711.38
2023-04-25T08:10:46.201Z,97723.66
2023-04-25T08:13:13.569Z,97722.97
2023-04-25T08:15:40.737Z,97728.97
2023-04-25T08:18:07.432Z,97725.44
2023-04-25T08:20:34.451Z,97728.78
2023-04-25T08:23:03.586Z,97732.84
2023-04-25T08:25:50.371Z,97737.72
2023-04-25T08:28:19.638Z,97738.34
2023-04-25T08:30:46.917Z,97742.72
2023-04-25T08:33:15.622Z,97744.47
2023-04-25T08:36:03.449Z,97746.97
2023-04-25T08:38:32.419Z,97755.75
2023-04-25T08:41:01.886Z,97755.75
2023-04-25T08:43:30.292Z,97754.41
2023-04-25T08:45:59.865Z,97758.38
2023-04-25T08:48:35.897Z,97764.25
2023-04-25T08:53:36.271Z,97779.19
2023-04-25T08:56:05.008Z,97783.88
2023-04-25T08:58:35.720Z,97779.91
2023-04-25T09:01:03.283Z,97788.69
2023-04-25T09:03:34.023Z,97788.72
2023-04-25T09:06:01.188Z,97790.19
2023-04-25T09:08:27.758Z,97792.66
2023-04-25T09:10:54.398Z,97794.72
2023-04-25T09:13:28.468Z,97801.03
2023-04-25T09:16:20.007Z,97802.88
2023-04-25T09:19:07.005Z,97804.81
2023-04-25T09:21:35.876Z,97811.94
2023-04-25T09:24:03.058Z,97815.47
2023-04-25T09:26:29.594Z,97820.56
2023-04-25T09:29:10.180Z,97819.03
2023-04-25T09:31:40.435Z,97823.59
2023-04-25T09:34:11.643Z,97829.88
2023-04-25T09:36:43.465Z,97826.88
2023-04-25T09:39:20.454Z,97831.22
2023-04-25T09:41:57.717Z,97837.97
2023-04-25T09:44:25.733Z,97840.72
2023-04-25T09:46:54.520Z,97840.56
2023-04-25T09:49:24.248Z,97846.19
2023-04-25T09:52:04.311Z,97846.72
2023-04-25T09:54:48.207Z,97847.50
2023-04-25T09:57:21.042Z,97845.72
2023-04-25T09:59:57.510Z,97847.53
2023-04-25T10:02:28.244Z,97849.59
2023-04-25T10:05:00.345Z,97850.09
2023-04-25T10:07:39.089Z,97856.13
2023-04-25T10:10:09.894Z,97864.75
2023-04-25T10:12:37.032Z,97869.09
2023-04-25T10:15:05.136Z,97869.72
2023-04-25T10:17:32.400Z,97871.72
2023-04-25T10:19:59.577Z,97878.34
2023-04-25T10:22:36.162Z,97885.91
2023-04-25T10:25:05.049Z,97895.69
2023-04-25T10:27:32.410Z,97895.44
2023-04-25T10:30:09.889Z,97899.94
2023-04-25T10:32:36.459Z,97908.84
2023-04-25T10:35:17.152Z,97913.00
2023-04-25T10:38:26.177Z,97918.97
2023-04-25T10:41:12.363Z,97921.03
2023-04-25T10:43:43.078Z,97921.88
2023-04-25T10:46:30.103Z,97927.56
2023-04-25T10:48:58.453Z,97933.63
2023-04-25T10:51:34.559Z,97930.91
2023-04-25T10:54:08.458Z,97939.84
2023-04-25T10:56:40.718Z,97946.59
2023-04-25T10:59:08.300Z,97942.81
2023-04-25T11:01:40.168Z,97956.13
2023-04-25T11:04:06.861Z,97954.97
2023-04-25T11:07:08.601Z,97958.16
2023-04-25T11:09:36.589Z,97955.97
2023-04-25T11:12:03.300Z,97962.50
2023-04-25T11:14:30.141Z,97947.91
2023-04-25T11:17:00.309Z,97953.09
2023-04-25T11:19:28.103Z,97959.88
2023-04-25T11:21:58.774Z,97962.41
2023-04-25T11:24:29.595Z,97966.13
2023-04-25T11:26:56.308Z,97959.00
2023-04-25T11:29:24.353Z,97959.53
2023-04-25T11:31:51.417Z,97967.28
2023-04-25T11:34:19.123Z,97967.63
2023-04-25T11:36:46.514Z,97975.56
2023-04-25T11:39:13.524Z,97980.69
2023-04-25T11:41:41.644Z,97970.13
2023-04-25T11:44:08.784Z,97978.00
2023-04-25T11:46:36.173Z,97969.91
2023-04-25T11:49:03.539Z,97968.50
2023-04-25T11:51:30.048Z,97976.88
2023-04-25T11:53:56.724Z,97976.28
2023-04-25T11:56:23.490Z,97972.50
2023-04-25T11:58:59.336Z,97978.88
2023-04-25T12:01:36.267Z,97982.47
2023-04-25T12:04:25.833Z,97985.75
2023-04-25T12:06:54.740Z,97980.78
2023-04-25T12:09:24.755Z,97979.94
2023-04-25T12:11:56.061Z,97986.31
2023-04-25T12:14:28.160Z,97992.28
2023-04-25T12:16:58.215Z,97984.84
2023-04-25T12:19:25.349Z,97994.31
2023-04-25T12:21:57.934Z,97986.03
2023-04-25T12:24:26.522Z,97995.53
2023-04-25T12:27:05.039Z,97995.94
2023-04-25T12:29:41.955Z,97989.03
2023-04-25T12:32:14.814Z,97995.97
2023-04-25T12:34:41.624Z,97990.66
2023-04-25T12:37:08.132Z,98004.22
2023-04-25T12:39:34.688Z,97997.50
2023-04-25T12:42:01.931Z,97995.75
2023-04-25T12:44:28.495Z,98003.06
2023-04-25T12:46:55.918Z,98001.13
2023-04-25T12:49:23.317Z,98002.09
2023-04-25T12:51:50.222Z,98001.88
2023-04-25T12:54:16.874Z,97996.41
2023-04-25T12:56:43.484Z,98001.53
2023-04-25T12:59:12.810Z,97999.75
2023-04-25T13:01:39.601Z,98010.84
2023-04-25T13:04:06.938Z,98012.78
2023-04-25T13:06:33.609Z,98013.28
2023-04-25T13:09:00.443Z,98015.28
2023-04-25T13:11:27.027Z,98012.34
2023-04-25T13:13:53.911Z,98003.31
2023-04-25T13:16:21.962Z,98001.63
2023-04-25T13:18:49.448Z,98006.22
2023-04-25T13:21:16.103Z,97996.03
2023-04-25T13:23:43.851Z,97992.00
2023-04-25T13:26:10.475Z,97995.91
2023-04-25T13:28:37.006Z,98006.34
2023-04-25T13:31:03.501Z,97995.81
2023-04-25T13:33:30.059Z,98004.78
2023-04-25T13:35:58.011Z,98010.16
2023-04-25T13:38:24.834Z,98000.22
2023-04-25T13:40:53.119Z,98004.81
2023-04-25T13:43:22.966Z,98001.63
2023-04-25T13:45:52.668Z,98004.16
2023-04-25T13:48:19.798Z,97999.47
2023-04-25T13:50:46.645Z,98015.16
2023-04-25T13:53:13.371Z,98014.88
2023-04-25T13:55:39.994Z,98020.22
2023-04-25T13:58:10.835Z,98017.16
2023-04-25T14:00:39.887Z,98020.75
2023-04-25T14:03:08.773Z,98021.59
2023-04-25T14:05:39.984Z,98019.28
2023-04-25T14:08:08.105Z,98023.97
2023-04-25T14:10:35.639Z,98018.25
2023-04-25T14:13:04.109Z,98020.31
2023-04-25T14:15:32.723Z,98017.13
2023-04-25T14:18:00.080Z,98015.63
2023-04-25T14:20:27.359Z,98018.97
2023-04-25T14:22:55.506Z,98014.34
2023-04-25T14:25:22.305Z,98009.63
2023-04-25T14:27:50.645Z,98005.06
2023-04-25T14:30:17.904Z,98003.94
2023-04-25T14:32:45.322Z,98020.50
2023-04-25T14:35:12.618Z,98017.44
2023-04-25T14:37:39.292Z,98023.63
2023-04-25T14:40:06.413Z,98024.91
2023-04-25T14:42:33.996Z,98018.72
2023-04-25T14:45:00.610Z,98027.53
2023-04-25T14:47:27.328Z,98021.63
2023-04-25T14:49:55.223Z,98028.66
2023-04-25T14:52:22.093Z,98032.81
2023-04-25T14:54:49.615Z,98039.44
2023-04-25T14:57:16.803Z,98032.72
2023-04-25T14:59:43.380Z,98032.06
2023-04-25T15:02:10.025Z,98033.50
2023-04-25T15:04:36.700Z,98030.56
2023-04-25T15:07:03.817Z,98033.34
2023-04-25T15:09:30.464Z,98037.81
2023-04-25T15:11:58.369Z,98034.38
2023-04-25T15:14:25.022Z,98041.72
2023-04-25T15:16:51.794Z,98037.50
2023-04-25T15:19:18.409Z,98024.53
2023-04-25T15:21:45.071Z,98027.53
2023-04-25T15:24:12.148Z,98031.75
2023-04-25T15:26:38.792Z,98039.44
2023-04-25T15:29:06.771Z,98041.91
2023-04-25T15:31:33.552Z,98035.31
2023-04-25T15:34:00.153Z,98048.88
2023-04-25T15:36:26.686Z,98043.63
2023-04-25T15:38:53.477Z,98044.84
2023-04-25T15:41:20.065Z,98050.38
2023-04-25T15:43:48.163Z,98056.22
2023-04-25T15:46:14.824Z,98052.56
2023-04-25T15:48:41.537Z,98052.72
2023-04-25T15:51:08.238Z,98043.06
2023-04-25T15:53:34.772Z,98051.31
2023-04-25T15:56:01.890Z,98048.22
2023-04-25T15:58:28.444Z,98055.25
2023-04-25T16:00:56.595Z,98045.41
2023-04-25T16:03:24.080Z,98052.50
2023-04-25T16:05:50.858Z,98048.97
2023-04-25T16:08:17.354Z,98048.91
2023-04-25T16:10:43.883Z,98049.25
2023-04-25T16:13:10.414Z,98048.03
2023-04-25T16:15:36.992Z,98054.34
2023-04-25T16:18:04.223Z,98050.00
2023-04-25T16:20:30.855Z,98049.22
2023-04-25T16:22:57.395Z,98052.59
2023-04-25T16:25:24.095Z,98059.19
2023-04-25T16:27:50.590Z,98054.91
2023-04-25T16:30:17.128Z,98054.78
2023-04-25T16:32:45.435Z,98061.81
2023-04-25T16:35:12.436Z,98058.25
2023-04-25T16:37:39.477Z,98054.50
2023-04-25T16:40:09.829Z,98057.00
2023-04-25T16:42:36.500Z,98059.63
2023-04-25T16:45:04.985Z,98059.19
2023-04-25T16:47:31.965Z,98062.56
2023-04-25T16:50:00.513Z,98069.97
2023-04-25T16:52:27.164Z,98068.44
2023-04-25T16:54:53.652Z,98073.56
2023-04-25T16:57:21.166Z,98078.28
2023-04-25T16:59:47.821Z,98068.28
2023-04-25T17:02:14.879Z,98081.44
2023-04-25T17:04:41.784Z,98077.13
2023-04-25T17:07:09.017Z,98083.91
2023-04-25T17:09:36.214Z,98083.88
2023-04-25T17:12:03.978Z,98093.25
2023-04-25T17:14:32.272Z,98091.44
2023-04-25T17:16:59.063Z,98094.75
2023-04-25T17:19:26.093Z,98097.44
2023-04-25T17:21:52.704Z,98101.59
2023-04-25T17:24:21.176Z,98097.22
2023-04-25T17:26:49.014Z,98102.75
2023-04-25T17:29:15.809Z,98103.03
2023-04-25T17:31:42.653Z,98106.91
2023-04-25T17:34:10.005Z,98112.72
2023-04-25T17:36:36.569Z,98109.97
2023-04-25T17:39:06.105Z,98116.19
2023-04-25T17:41:32.632Z,98128.44
2023-04-25T17:43:59.140Z,98133.94
2023-04-25T17:46:27.432Z,98134.41
2023-04-25T17:48:54.381Z,98145.22
2023-04-25T17:51:21.271Z,98148.00
2023-04-25T17:53:47.885Z,98161.22
2023-04-25T17:56:25.986Z,98160.66
2023-04-25T17:58:54.071Z,98159.19
2023-04-25T18:01:21.328Z,98157.16
2023-04-25T18:03:49.929Z,98161.25
2023-04-25T18:06:17.220Z,98160.66
2023-04-25T18:08:44.786Z,98156.28
2023-04-25T18:11:12.069Z,98167.31
2023-04-25T18:13:39.462Z,98160.38
2023-04-25T18:16:06.644Z,98163.38
2023-04-25T18:18:35.650Z,98166.63
2023-04-25T18:21:04.928Z,98172.59
2023-04-25T18:23:33.796Z,98163.84
2023-04-25T18:26:00.532Z,98172.59
2023-04-25T18:28:27.059Z,98180.28
2023-04-25T18:30:54.248Z,98184.59
2023-04-25T18:33:24.217Z,98186.03
2023-04-25T18:35:58.019Z,98189.03
2023-04-25T18:38:35.497Z,98193.47
2023-04-25T18:41:13.073Z,98204.72
2023-04-25T18:43:49.733Z,98208.53
2023-04-25T18:46:17.677Z,98201.31
2023-04-25T18:48:44.313Z,98204.94
2023-04-25T18:51:11.025Z,98211.66
2023-04-25T18:53:37.918Z,98216.91
2023-04-25T18:56:04.743Z,98218.97
2023-04-25T18:58:31.462Z,98218.81
2023-04-25T19:00:58.048Z,98217.94
2023-04-25T19:03:24.693Z,98217.75
2023-04-25T19:05:51.678Z,98216.28
2023-04-25T19:08:18.249Z,98218.56
2023-04-25T19:10:44.773Z,98228.31
2023-04-25T19:13:11.388Z,98239.25
2023-04-25T19:15:39.476Z,98229.78
2023-04-25T19:18:05.985Z,98240.72
2023-04-25T19:20:35.511Z,98243.75
2023-04-25T19:23:02.163Z,98242.53
2023-04-25T19:25:28.768Z,98250.22
2023-04-25T19:27:55.375Z,98247.03
2023-04-25T19:30:22.002Z,98246.81
2023-04-25T19:32:48.924Z,98244.16
2023-04-25T19:35:15.691Z,98247.06
2023-04-25T19:37:46.466Z,98243.75
2023-04-25T19:40:14.606Z,98236.50
2023-04-25T19:42:41.227Z,98232.28
2023-04-25T19:45:08.476Z,98249.03
2023-04-25T19:47:38.244Z,98253.13
2023-04-25T19:50:06.652Z,98248.97
2023-04-25T19:52:34.530Z,98248.81
2023-04-25T19:55:04.940Z,98253.38
2023-04-25T19:57:37.588Z,98252.75
2023-04-25T20:00:10.696Z,98252.09
2023-04-25T20:02:40.982Z,98256.88
2023-04-25T20:05:08.722Z,98264.72
2023-04-25T20:07:35.404Z,98267.28
2023-04-25T20:10:01.983Z,98261.34
2023-04-25T20:12:28.659Z,98263.44
2023-04-25T20:14:56.259Z,98263.28
2023-04-25T20:17:22.863Z,98258.84
2023-04-25T20:19:49.431Z,98258.84
2023-04-25T20:22:15.963Z,98260.06
2023-04-25T20:24:42.462Z,98260.34
2023-04-25T20:27:08.974Z,98265.91
2023-04-25T20:29:35.919Z,98272.13
2023-04-25T20:32:03.565Z,98267.94
2023-04-25T20:34:31.579Z,98270.88
2023-04-25T20:36:58.155Z,98283.34
2023-04-25T20:39:25.009Z,98280.06
2023-04-25T20:41:51.680Z,98281.09
2023-04-25T20:44:20.516Z,98284.00
2023-04-25T20:46:47.925Z,98281.53
2023-04-25T20:49:15.155Z,98286.06
2023-04-25T20:51:42.338Z,98289.94
2023-04-25T20:54:09.781Z,98292.81
2023-04-25T20:56:37.781Z,98289.78
2023-04-25T20:59:04.624Z,98283.69
2023-04-25T21:01:31.168Z,98279.44
2023-04-25T21:03:58.040Z,98278.81
2023-04-25T21:06:24.819Z,98284.38
2023-04-25T21:08:51.733Z,98278.94
2023-04-25T21:11:19.659Z,98287.94
2023-04-25T21:13:46.276Z,98294.03
2023-04-25T21:16:12.792Z,98298.81
2023-04-25T21:18:39.361Z,98299.31
2023-04-25T21:21:06.234Z,98293.06
2023-04-25T21:23:33.298Z,98297.56
2023-04-25T21:25:59.857Z,98296.50
2023-04-25T21:28:26.537Z,98296.91
2023-04-25T21:30:53.183Z,98293.44
2023-04-25T21:33:19.900Z,98291.97
2023-04-25T21:35:46.407Z,98295.38
2023-04-25T21:38:12.996Z,98291.19
2023-04-25T21:40:40.075Z,98294.38
2023-04-25T21:43:06.641Z,98297.25
2023-04-25T21:45:34.957Z,98298.84
2023-04-25T21:48:04.482Z,98295.59
2023-04-25T21:50:31.521Z,98305.72
2023-04-25T21:52:58.998Z,98319.25
2023-04-25T21:55:26.824Z,98315.97
2023-04-25T21:57:53.576Z,98321.75
2023-04-25T22:00:24.559Z,98315.84
2023-04-25T22:02:51.799Z,98321.59
2023-04-25T22:05:21.073Z,98318.34
2023-04-25T22:07:51.256Z,98316.41
2023-04-25T22:10:18.145Z,98314.94
2023-04-25T22:12:44.820Z,98311.34
2023-04-25T22:15:17.265Z,98312.66
2023-04-25T22:17:43.847Z,98313.19
2023-04-25T22:20:13.898Z,98316.81
2023-04-25T22:22:41.539Z,98307.00
2023-04-25T22:25:08.833Z,98330.72
2023-04-25T22:27:35.414Z,98322.16
2023-04-25T22:30:02.114Z,98329.13
2023-04-25T22:32:29.024Z,98331.81
2023-04-25T22:34:56.009Z,98343.03
2023-04-25T22:37:22.509Z,98333.22
2023-04-25T22:39:49.024Z,98329.53
2023-04-25T22:42:15.521Z,98348.84
2023-04-25T22:44:42.185Z,98341.97
2023-04-25T22:47:08.963Z,98338.03
2023-04-25T22:49:35.464Z,98341.16
2023-04-25T22:52:03.269Z,98349.50
2023-04-25T22:54:30.483Z,98336.91
2023-04-25T22:56:57.946Z,98342.81
2023-04-25T22:59:24.916Z,98351.78
2023-04-25T23:01:51.670Z,98361.78
2023-04-25T23:04:21.413Z,98362.16
2023-04-25T23:06:48.088Z,98357.84
2023-04-25T23:09:15.835Z,98354.47
2023-04-25T23:11:42.645Z,98352.44
2023-04-25T23:14:09.209Z,98349.84
2023-04-25T23:16:35.929Z,98356.47
2023-04-25T23:19:03.340Z,98362.75
2023-04-25T23:21:29.856Z,98355.72
2023-04-25T23:23:56.466Z,98350.88
2023-04-25T23:26:23.044Z,98355.03
2023-04-25T23:28:49.520Z,98353.69
2023-04-25T23:31:16.463Z,98346.00
2023-04-25T23:33:43.059Z,98356.16
2023-04-25T23:36:22.244Z,98354.13
2023-04-25T23:38:50.228Z,98341.63
2023-04-25T23:41:17.171Z,98348.56
2023-04-25T23:43:43.696Z,98350.59
2023-04-25T23:46:10.279Z,98353.56
2023-04-25T23:48:36.833Z,98356.22
2023-04-25T23:51:03.462Z,98357.97
2023-04-25T23:53:29.964Z,98354.56
2023-04-25T23:55:56.481Z,98357.13
2023-04-25T23:58:22.994Z,98357.53
